createdAt,value
2024-02-26T00:01:03.177Z,54.41
2024-02-26T00:03:36.840Z,54.53
2024-02-26T00:06:08.270Z,54.67
2024-02-26T00:08:39.038Z,54.54
2024-02-26T00:11:09.734Z,54.57
2024-02-26T00:13:40.845Z,54.45
2024-02-26T00:16:11.528Z,54.50
2024-02-26T00:18:42.641Z,54.50
2024-02-26T00:21:13.969Z,54.69
2024-02-26T00:23:44.714Z,54.36
2024-02-26T00:26:16.402Z,54.62
2024-02-26T00:28:47.093Z,54.68
2024-02-26T00:31:18.092Z,54.72
2024-02-26T00:33:48.856Z,54.88
2024-02-26T00:36:20.710Z,54.79
2024-02-26T00:38:52.808Z,54.75
2024-02-26T00:41:24.437Z,54.82
2024-02-26T00:43:55.045Z,54.67
2024-02-26T00:46:26.205Z,54.64
2024-02-26T00:48:56.983Z,54.81
2024-02-26T00:51:27.922Z,54.95
2024-02-26T00:53:59.137Z,55.02
2024-02-26T00:56:30.088Z,54.87
2024-02-26T00:59:00.861Z,55.10
2024-02-26T01:01:31.575Z,54.97
2024-02-26T01:04:02.319Z,55.29
2024-02-26T01:06:33.205Z,55.18
2024-02-26T01:09:04.158Z,55.14
2024-02-26T01:11:35.066Z,55.16
2024-02-26T01:14:05.801Z,55.08
2024-02-26T01:16:36.535Z,55.01
2024-02-26T01:19:07.365Z,55.09
2024-02-26T01:21:38.225Z,54.89
2024-02-26T01:24:09.618Z,54.92
2024-02-26T01:26:40.387Z,55.38
2024-02-26T01:29:11.085Z,54.88
2024-02-26T01:31:41.729Z,55.16
2024-02-26T01:34:12.489Z,55.37
2024-02-26T01:36:43.239Z,55.34
2024-02-26T01:39:14.477Z,55.15
2024-02-26T01:41:45.384Z,55.18
2024-02-26T01:44:16.948Z,55.23
2024-02-26T01:46:47.685Z,55.33
2024-02-26T01:49:18.950Z,55.24
2024-02-26T01:51:50.091Z,55.28
2024-02-26T01:54:21.169Z,55.61
2024-02-26T01:56:53.094Z,55.85
2024-02-26T01:59:24.617Z,55.63
2024-02-26T02:01:59.743Z,55.64
2024-02-26T02:04:30.599Z,55.55
2024-02-26T02:07:02.522Z,55.55
2024-02-26T02:09:33.980Z,55.84
2024-02-26T02:12:05.275Z,56.13
2024-02-26T02:14:36.002Z,56.15
2024-02-26T02:17:06.698Z,56.04
2024-02-26T02:19:37.434Z,56.19
2024-02-26T02:22:08.355Z,56.18
2024-02-26T02:24:39.001Z,56.38
2024-02-26T02:27:09.789Z,56.51
2024-02-26T02:29:43.703Z,56.80
2024-02-26T02:32:14.949Z,56.73
2024-02-26T02:34:46.007Z,56.80
2024-02-26T02:37:16.813Z,56.52
2024-02-26T02:39:47.485Z,56.63
2024-02-26T02:42:18.165Z,57.09
2024-02-26T02:44:48.892Z,57.10
2024-02-26T02:47:19.573Z,56.84
2024-02-26T02:49:50.400Z,56.97
2024-02-26T02:52:21.110Z,56.37
2024-02-26T02:54:51.768Z,56.82
2024-02-26T02:57:22.723Z,56.95
2024-02-26T02:59:53.416Z,56.87
2024-02-26T03:02:26.076Z,56.66
2024-02-26T03:04:56.752Z,56.79
2024-02-26T03:07:27.577Z,56.74
2024-02-26T03:09:58.352Z,56.77
2024-02-26T03:12:30.183Z,56.45
2024-02-26T03:15:03.784Z,56.40
2024-02-26T03:17:34.598Z,56.46
2024-02-26T03:20:06.511Z,57.04
2024-02-26T03:22:37.306Z,56.82
2024-02-26T03:25:09.629Z,56.93
2024-02-26T03:27:40.343Z,57.15
2024-02-26T03:30:12.324Z,56.70
2024-02-26T03:32:43.094Z,57.03
2024-02-26T03:35:14.426Z,57.08
2024-02-26T03:37:45.110Z,57.35
2024-02-26T03:40:17.224Z,57.00
2024-02-26T03:42:47.837Z,56.92
2024-02-26T03:45:18.906Z,56.87
2024-02-26T03:47:49.682Z,57.02
2024-02-26T03:50:20.490Z,57.27
2024-02-26T03:52:51.179Z,57.42
2024-02-26T03:55:26.067Z,57.68
2024-02-26T03:57:57.008Z,57.63
2024-02-26T04:00:30.407Z,57.57
2024-02-26T04:03:01.180Z,57.45
2024-02-26T04:05:31.820Z,57.78
2024-02-26T04:08:02.492Z,57.80
2024-02-26T04:10:33.274Z,57.95
2024-02-26T04:13:05.114Z,57.91
2024-02-26T04:15:35.791Z,57.90
2024-02-26T04:18:07.361Z,57.86
2024-02-26T04:20:38.100Z,57.92
2024-02-26T04:23:08.879Z,57.74
2024-02-26T04:25:39.498Z,58.11
2024-02-26T04:28:10.675Z,57.78
2024-02-26T04:30:41.345Z,57.92
2024-02-26T04:33:12.092Z,57.67
2024-02-26T04:35:43.800Z,57.62
2024-02-26T04:38:14.569Z,57.79
2024-02-26T04:40:45.229Z,57.57
2024-02-26T04:43:16.919Z,57.88
2024-02-26T04:45:47.527Z,57.83
2024-02-26T04:48:18.277Z,57.51
2024-02-26T04:50:49.014Z,58.04
2024-02-26T04:53:19.691Z,58.02
2024-02-26T04:55:50.403Z,58.22
2024-02-26T04:58:21.076Z,58.35
2024-02-26T05:00:51.797Z,58.57
2024-02-26T05:03:22.720Z,58.85
2024-02-26T05:05:53.598Z,58.77
2024-02-26T05:08:24.330Z,58.89
2024-02-26T05:10:55.062Z,59.29
2024-02-26T05:13:25.727Z,59.35
2024-02-26T05:15:56.441Z,58.95
2024-02-26T05:18:27.207Z,59.07
2024-02-26T05:20:57.949Z,59.02
2024-02-26T05:23:28.825Z,59.13
2024-02-26T05:25:59.484Z,59.02
2024-02-26T05:28:30.136Z,58.89
2024-02-26T05:31:01.288Z,59.26
2024-02-26T05:33:32.041Z,58.88
2024-02-26T05:36:05.436Z,59.23
2024-02-26T05:38:36.889Z,59.16
2024-02-26T05:41:09.338Z,59.37
2024-02-26T05:43:39.973Z,59.20
2024-02-26T05:46:10.640Z,59.18
2024-02-26T05:48:41.522Z,59.41
2024-02-26T05:51:13.420Z,59.14
2024-02-26T05:53:44.176Z,59.42
2024-02-26T05:56:14.854Z,59.37
2024-02-26T05:58:45.488Z,59.46
2024-02-26T06:01:17.315Z,59.66
2024-02-26T06:03:48.088Z,59.66
2024-02-26T06:06:19.087Z,59.56
2024-02-26T06:08:50.156Z,59.75
2024-02-26T06:11:21.556Z,59.77
2024-02-26T06:13:52.185Z,59.80
2024-02-26T06:16:22.790Z,60.10
2024-02-26T06:18:53.429Z,59.87
2024-02-26T06:21:24.213Z,59.93
2024-02-26T06:23:54.886Z,59.89
2024-02-26T06:26:25.542Z,60.01
2024-02-26T06:28:56.179Z,60.17
2024-02-26T06:31:28.819Z,59.94
2024-02-26T06:33:59.699Z,60.15
2024-02-26T06:36:32.635Z,60.14
2024-02-26T06:39:03.785Z,60.12
2024-02-26T06:41:34.422Z,59.83
2024-02-26T06:44:05.669Z,59.92
2024-02-26T06:46:36.302Z,60.05
2024-02-26T06:49:07.383Z,59.91
2024-02-26T06:51:38.083Z,60.04
2024-02-26T06:54:09.146Z,59.81
2024-02-26T06:56:39.844Z,60.36
2024-02-26T06:59:10.572Z,60.49
2024-02-26T07:01:43.129Z,60.33
2024-02-26T07:04:14.122Z,60.05
2024-02-26T07:06:45.199Z,60.15
2024-02-26T07:09:16.850Z,60.16
2024-02-26T07:11:47.596Z,60.36
2024-02-26T07:14:18.212Z,60.37
2024-02-26T07:16:49.073Z,60.12
2024-02-26T07:19:19.838Z,60.54
2024-02-26T07:21:50.625Z,60.70
2024-02-26T07:24:21.314Z,60.66
2024-02-26T07:26:51.974Z,60.40
2024-02-26T07:29:22.686Z,60.67
2024-02-26T07:31:53.317Z,60.76
2024-02-26T07:34:28.812Z,60.46
2024-02-26T07:36:59.722Z,60.75
2024-02-26T07:39:30.406Z,60.30
2024-02-26T07:42:01.098Z,60.83
2024-02-26T07:44:32.107Z,60.60
2024-02-26T07:47:04.130Z,60.47
2024-02-26T07:49:37.497Z,60.68
2024-02-26T07:52:10.110Z,60.34
2024-02-26T07:54:40.782Z,60.38
2024-02-26T07:57:11.444Z,60.57
2024-02-26T07:59:46.076Z,60.49
2024-02-26T08:02:16.863Z,60.41
2024-02-26T08:04:47.472Z,60.11
2024-02-26T08:07:18.279Z,60.21
2024-02-26T08:09:49.160Z,60.22
2024-02-26T08:12:19.952Z,60.49
2024-02-26T08:14:50.741Z,60.51
2024-02-26T08:17:21.412Z,59.80
2024-02-26T08:19:52.463Z,60.22
2024-02-26T08:22:23.298Z,60.16
2024-02-26T08:24:53.942Z,60.30
2024-02-26T08:27:25.814Z,60.13
2024-02-26T08:29:55.188Z,60.17
2024-02-26T08:32:25.942Z,60.08
2024-02-26T08:34:57.085Z,60.48
2024-02-26T08:37:27.824Z,60.33
2024-02-26T08:40:00.942Z,59.98
2024-02-26T08:42:33.339Z,60.16
2024-02-26T08:45:04.629Z,60.15
2024-02-26T08:47:35.368Z,59.79
2024-02-26T08:50:06.532Z,59.91
2024-02-26T08:52:37.931Z,59.84
2024-02-26T08:55:10.453Z,59.90
2024-02-26T08:57:41.144Z,59.98
2024-02-26T09:00:13.874Z,59.90
2024-02-26T09:02:45.225Z,59.57
2024-02-26T09:05:16.025Z,59.44
2024-02-26T09:07:47.562Z,59.51
2024-02-26T09:10:18.756Z,59.14
2024-02-26T09:12:49.549Z,59.01
2024-02-26T09:15:20.544Z,58.88
2024-02-26T09:17:53.314Z,58.81
2024-02-26T09:20:24.913Z,58.64
2024-02-26T09:22:55.744Z,58.35
2024-02-26T09:25:26.441Z,58.12
2024-02-26T09:27:57.187Z,57.90
2024-02-26T09:30:28.254Z,58.08
2024-02-26T09:32:58.971Z,57.99
2024-02-26T09:35:30.374Z,57.94
2024-02-26T09:38:01.020Z,57.86
2024-02-26T09:40:31.734Z,57.74
2024-02-26T09:43:07.015Z,57.56
2024-02-26T09:45:38.831Z,57.52
2024-02-26T09:48:14.212Z,57.34
2024-02-26T09:50:46.224Z,57.16
2024-02-26T09:53:16.946Z,57.02
2024-02-26T09:55:47.812Z,56.96
2024-02-26T09:58:20.179Z,56.89
2024-02-26T10:00:57.720Z,56.61
2024-02-26T10:03:30.978Z,56.59
2024-02-26T10:06:03.981Z,56.48
2024-02-26T10:08:36.294Z,56.24
2024-02-26T10:11:07.539Z,56.01
2024-02-26T10:13:38.348Z,56.00
2024-02-26T10:16:09.830Z,56.21
2024-02-26T10:18:58.877Z,55.89
2024-02-26T10:21:31.174Z,55.94
2024-02-26T10:24:01.922Z,55.89
2024-02-26T10:26:32.933Z,55.46
2024-02-26T10:29:05.450Z,55.36
2024-02-26T10:31:36.113Z,55.08
2024-02-26T10:34:07.366Z,54.79
2024-02-26T10:36:44.759Z,54.31
2024-02-26T10:39:23.405Z,54.37
2024-02-26T10:41:54.260Z,53.97
2024-02-26T10:44:25.001Z,54.28
2024-02-26T10:46:56.222Z,54.15
2024-02-26T10:49:27.235Z,54.00
2024-02-26T10:51:59.980Z,53.93
2024-02-26T10:54:34.749Z,53.55
2024-02-26T10:57:07.434Z,53.37
2024-02-26T10:59:38.855Z,53.30
2024-02-26T11:02:12.433Z,53.39
2024-02-26T11:04:43.344Z,53.09
2024-02-26T11:07:15.185Z,52.92
2024-02-26T11:09:53.063Z,52.95
2024-02-26T11:12:25.032Z,52.80
2024-02-26T11:14:56.377Z,52.38
2024-02-26T11:17:28.507Z,52.42
2024-02-26T11:19:59.001Z,52.25
2024-02-26T11:22:30.212Z,52.19
2024-02-26T11:25:02.429Z,52.17
2024-02-26T11:27:37.408Z,52.08
2024-02-26T11:30:13.196Z,51.94
2024-02-26T11:32:46.128Z,51.77
2024-02-26T11:35:19.695Z,51.55
2024-02-26T11:37:57.810Z,51.28
2024-02-26T11:40:29.547Z,51.18
2024-02-26T11:43:00.285Z,51.08
2024-02-26T11:45:53.963Z,50.99
2024-02-26T11:48:31.286Z,50.74
2024-02-26T11:51:02.124Z,50.17
2024-02-26T11:53:35.834Z,50.35
2024-02-26T11:56:27.179Z,50.20
2024-02-26T11:59:04.342Z,49.81
2024-02-26T12:01:46.279Z,49.67
2024-02-26T12:04:19.537Z,49.62
2024-02-26T12:06:52.862Z,49.56
2024-02-26T12:09:38.224Z,49.43
2024-02-26T12:12:11.278Z,49.38
2024-02-26T12:15:00.012Z,49.05
2024-02-26T12:17:31.011Z,48.73
2024-02-26T12:20:12.555Z,48.82
2024-02-26T12:22:46.180Z,48.72
2024-02-26T12:25:17.155Z,48.39
2024-02-26T12:27:47.826Z,48.49
2024-02-26T12:30:19.161Z,48.57
2024-02-26T12:32:50.988Z,48.36
2024-02-26T12:35:22.219Z,48.28
2024-02-26T12:37:53.496Z,48.05
2024-02-26T12:40:24.675Z,48.00
2024-02-26T12:42:57.244Z,47.56
2024-02-26T12:45:29.931Z,47.57
2024-02-26T12:48:01.547Z,47.44
2024-02-26T12:50:33.275Z,47.25
2024-02-26T12:53:04.093Z,47.16
2024-02-26T12:55:37.639Z,47.40
2024-02-26T12:58:08.642Z,47.42
2024-02-26T13:00:40.845Z,47.53
2024-02-26T13:03:12.141Z,47.20
2024-02-26T13:05:43.685Z,47.21
2024-02-26T13:08:21.377Z,47.12
2024-02-26T13:10:53.102Z,47.35
2024-02-26T13:13:24.722Z,47.45
2024-02-26T13:16:05.898Z,47.42
2024-02-26T13:18:37.958Z,47.15
2024-02-26T13:21:16.729Z,47.14
2024-02-26T13:23:54.469Z,46.98
2024-02-26T13:26:26.941Z,46.44
2024-02-26T13:29:06.690Z,46.40
2024-02-26T13:31:44.842Z,46.57
2024-02-26T13:34:27.915Z,46.85
2024-02-26T13:36:59.303Z,47.00
2024-02-26T13:39:31.637Z,47.22
2024-02-26T13:42:02.521Z,47.39
2024-02-26T13:44:34.733Z,47.43
2024-02-26T13:47:05.539Z,47.59
2024-02-26T13:49:36.209Z,47.62
2024-02-26T13:52:07.290Z,47.62
2024-02-26T13:54:39.777Z,47.63
2024-02-26T13:57:11.000Z,47.76
2024-02-26T13:59:43.544Z,47.97
2024-02-26T14:02:14.352Z,48.21
2024-02-26T14:04:45.912Z,48.68
2024-02-26T14:07:18.703Z,48.20
2024-02-26T14:09:50.796Z,47.91
2024-02-26T14:12:23.961Z,47.89
2024-02-26T14:14:56.947Z,47.88
2024-02-26T14:17:27.686Z,48.01
2024-02-26T14:19:58.534Z,48.09
2024-02-26T14:22:29.347Z,48.06
2024-02-26T14:25:00.713Z,48.06
2024-02-26T14:27:31.598Z,47.98
2024-02-26T14:30:02.372Z,48.01
2024-02-26T14:32:36.411Z,47.85
2024-02-26T14:35:13.681Z,47.90
2024-02-26T14:37:49.141Z,48.01
2024-02-26T14:40:20.081Z,48.09
2024-02-26T14:42:51.073Z,48.15
2024-02-26T14:45:21.710Z,48.39
2024-02-26T14:47:52.445Z,48.25
2024-02-26T14:50:23.533Z,48.42
2024-02-26T14:52:54.129Z,48.25
2024-02-26T14:55:24.969Z,48.31
2024-02-26T14:57:55.649Z,48.43
2024-02-26T15:00:26.321Z,48.95
2024-02-26T15:02:57.028Z,48.62
2024-02-26T15:05:27.680Z,48.22
2024-02-26T15:07:58.413Z,48.36
2024-02-26T15:10:29.887Z,48.26
2024-02-26T15:13:00.533Z,48.13
2024-02-26T15:15:32.243Z,48.12
2024-02-26T15:18:03.631Z,48.26
2024-02-26T15:20:34.593Z,48.18
2024-02-26T15:23:05.368Z,48.19
2024-02-26T15:25:36.184Z,48.36
2024-02-26T15:28:08.054Z,48.35
2024-02-26T15:30:39.177Z,47.94
2024-02-26T15:33:10.674Z,48.09
2024-02-26T15:35:43.602Z,48.10
2024-02-26T15:38:15.003Z,48.20
2024-02-26T15:40:47.948Z,48.18
2024-02-26T15:43:20.775Z,48.25
2024-02-26T15:45:51.912Z,48.28
2024-02-26T15:48:22.733Z,48.47
2024-02-26T15:50:53.565Z,48.48
2024-02-26T15:53:24.286Z,48.49
2024-02-26T15:55:54.928Z,48.66
2024-02-26T15:59:16.392Z,48.76
2024-02-26T16:01:47.378Z,48.70
2024-02-26T16:04:18.293Z,48.85
2024-02-26T16:06:54.459Z,48.89
2024-02-26T16:09:25.289Z,49.00
2024-02-26T16:11:56.032Z,49.14
2024-02-26T16:14:38.904Z,48.95
2024-02-26T16:17:17.417Z,49.22
2024-02-26T16:19:48.301Z,49.28
2024-02-26T16:22:19.126Z,49.37
2024-02-26T16:24:49.869Z,49.34
2024-02-26T16:27:20.511Z,49.42
2024-02-26T16:29:51.340Z,49.50
2024-02-26T16:32:23.203Z,49.53
2024-02-26T16:34:54.254Z,49.72
2024-02-26T16:37:25.238Z,49.66
2024-02-26T16:39:56.223Z,49.77
2024-02-26T16:42:26.905Z,49.62
2024-02-26T16:44:58.032Z,49.79
2024-02-26T16:47:28.900Z,49.88
2024-02-26T16:49:59.587Z,50.00
2024-02-26T16:52:30.675Z,50.04
2024-02-26T16:55:04.491Z,50.13
2024-02-26T16:57:36.955Z,50.07
2024-02-26T17:00:12.060Z,50.16
2024-02-26T17:02:43.170Z,50.26
2024-02-26T17:05:14.882Z,50.46
2024-02-26T17:07:46.267Z,50.30
2024-02-26T17:10:18.066Z,50.49
2024-02-26T17:12:48.664Z,50.42
2024-02-26T17:15:19.728Z,50.55
2024-02-26T17:17:50.606Z,50.45
2024-02-26T17:20:22.363Z,50.48
2024-02-26T17:22:52.992Z,50.59
2024-02-26T17:25:23.739Z,50.64
2024-02-26T17:27:54.384Z,50.59
2024-02-26T17:30:25.329Z,50.71
2024-02-26T17:32:56.911Z,50.93
2024-02-26T17:35:27.628Z,50.73
2024-02-26T17:37:58.676Z,50.82
2024-02-26T17:40:29.394Z,50.78
2024-02-26T17:43:01.976Z,50.93
2024-02-26T17:45:33.432Z,50.90
2024-02-26T17:48:05.050Z,51.06
2024-02-26T17:50:35.825Z,50.98
2024-02-26T17:53:06.866Z,51.07
2024-02-26T17:55:37.492Z,50.92
2024-02-26T17:58:08.473Z,51.32
2024-02-26T18:00:39.391Z,51.30
2024-02-26T18:03:10.180Z,51.35
2024-02-26T18:05:42.724Z,51.40
2024-02-26T18:08:14.362Z,51.66
2024-02-26T18:10:45.190Z,51.54
2024-02-26T18:13:15.902Z,51.71
2024-02-26T18:15:47.157Z,51.92
2024-02-26T18:18:17.906Z,51.83
2024-02-26T18:20:48.714Z,52.00
2024-02-26T18:23:19.334Z,51.97
2024-02-26T18:25:51.360Z,52.06
2024-02-26T18:28:22.752Z,52.18
2024-02-26T18:30:53.535Z,52.11
2024-02-26T18:33:24.999Z,52.06
2024-02-26T18:35:56.031Z,51.94
2024-02-26T18:38:27.827Z,51.92
2024-02-26T18:40:58.479Z,51.99
2024-02-26T18:43:29.347Z,51.87
2024-02-26T18:46:00.178Z,52.04
2024-02-26T18:48:32.910Z,51.95
2024-02-26T18:51:05.836Z,52.07
2024-02-26T18:53:36.525Z,51.94
2024-02-26T18:56:08.072Z,52.16
2024-02-26T18:58:38.885Z,52.16
2024-02-26T19:01:09.827Z,52.00
2024-02-26T19:03:40.551Z,51.96
2024-02-26T19:06:13.418Z,51.93
2024-02-26T19:08:44.143Z,52.09
2024-02-26T19:11:16.601Z,52.21
2024-02-26T19:13:47.376Z,52.16
2024-02-26T19:16:24.243Z,52.14
2024-02-26T19:18:55.944Z,52.42
2024-02-26T19:21:25.228Z,52.47
2024-02-26T19:23:56.035Z,52.37
2024-02-26T19:26:26.740Z,52.35
2024-02-26T19:28:57.387Z,52.35
2024-02-26T19:31:30.836Z,52.38
2024-02-26T19:34:02.551Z,52.57
2024-02-26T19:36:36.130Z,52.56
2024-02-26T19:39:06.966Z,52.53
2024-02-26T19:41:37.652Z,52.11
2024-02-26T19:44:08.448Z,52.38
2024-02-26T19:46:39.124Z,52.32
2024-02-26T19:49:11.839Z,52.27
2024-02-26T19:51:44.381Z,52.13
2024-02-26T19:54:15.244Z,52.13
2024-02-26T19:56:47.817Z,52.22
2024-02-26T19:59:20.178Z,52.01
2024-02-26T20:01:50.879Z,51.85
2024-02-26T20:04:21.680Z,52.25
2024-02-26T20:06:52.519Z,51.93
2024-02-26T20:09:27.867Z,51.96
2024-02-26T20:12:00.867Z,52.04
2024-02-26T20:14:31.805Z,51.70
2024-02-26T20:17:03.864Z,51.97
2024-02-26T20:19:34.890Z,52.14
2024-02-26T20:22:05.907Z,52.18
2024-02-26T20:24:36.665Z,52.05
2024-02-26T20:27:08.398Z,52.14
2024-02-26T20:29:39.957Z,52.18
2024-02-26T20:32:11.147Z,51.99
2024-02-26T20:34:42.496Z,52.05
2024-02-26T20:37:14.623Z,52.23
2024-02-26T20:39:43.806Z,51.99
2024-02-26T20:42:14.636Z,52.19
2024-02-26T20:44:46.145Z,52.07
2024-02-26T20:47:19.092Z,52.06
2024-02-26T20:49:49.976Z,52.02
2024-02-26T20:52:20.886Z,52.06
2024-02-26T20:54:51.528Z,53.00
2024-02-26T20:57:22.228Z,53.55
2024-02-26T20:59:52.871Z,53.51
2024-02-26T21:02:29.606Z,54.59
2024-02-26T21:05:04.848Z,55.01
2024-02-26T21:07:35.694Z,55.41
2024-02-26T21:10:08.816Z,55.44
2024-02-26T21:12:39.735Z,55.34
2024-02-26T21:15:11.816Z,55.60
2024-02-26T21:17:42.522Z,55.69
2024-02-26T21:20:16.240Z,55.37
2024-02-26T21:22:47.262Z,55.15
2024-02-26T21:25:18.603Z,55.06
2024-02-26T21:27:49.247Z,55.51
2024-02-26T21:30:20.018Z,55.52
2024-02-26T21:32:51.358Z,55.90
2024-02-26T21:35:22.356Z,56.14
2024-02-26T21:37:52.954Z,56.40
2024-02-26T21:40:23.604Z,56.39
2024-02-26T21:42:54.246Z,56.50
2024-02-26T21:45:24.962Z,56.75
2024-02-26T21:47:55.866Z,56.47
2024-02-26T21:50:26.593Z,56.83
2024-02-26T21:52:57.233Z,57.05
2024-02-26T21:55:29.523Z,56.96
2024-02-26T21:58:00.179Z,56.81
2024-02-26T22:00:30.858Z,57.29
2024-02-26T22:03:01.538Z,57.10
2024-02-26T22:05:32.246Z,57.17
2024-02-26T22:08:02.877Z,57.28
2024-02-26T22:10:33.541Z,57.36
2024-02-26T22:13:04.266Z,57.50
2024-02-26T22:15:34.960Z,57.60
2024-02-26T22:18:06.009Z,57.70
2024-02-26T22:20:36.978Z,57.72
2024-02-26T22:23:08.167Z,57.50
2024-02-26T22:25:38.805Z,57.54
2024-02-26T22:28:09.610Z,57.89
2024-02-26T22:30:40.368Z,57.57
2024-02-26T22:33:11.296Z,57.58
2024-02-26T22:35:42.082Z,57.50
2024-02-26T22:38:12.856Z,57.60
2024-02-26T22:40:43.547Z,57.97
2024-02-26T22:43:14.264Z,57.69
2024-02-26T22:45:46.053Z,58.31
2024-02-26T22:48:15.437Z,58.11
2024-02-26T22:50:46.566Z,58.34
2024-02-26T22:53:17.223Z,58.19
2024-02-26T22:55:51.642Z,58.50
2024-02-26T22:58:22.358Z,58.60
2024-02-26T23:00:54.522Z,58.86
2024-02-26T23:03:25.387Z,58.77
2024-02-26T23:05:56.162Z,58.77
2024-02-26T23:08:26.979Z,59.12
2024-02-26T23:10:57.704Z,58.79
2024-02-26T23:13:28.467Z,58.96
2024-02-26T23:15:59.086Z,59.20
2024-02-26T23:18:29.966Z,59.07
2024-02-26T23:21:00.852Z,59.28
2024-02-26T23:23:32.073Z,59.45
2024-02-26T23:26:02.706Z,59.34
2024-02-26T23:28:33.334Z,59.11
2024-02-26T23:31:04.019Z,59.15
2024-02-26T23:33:34.943Z,58.69
2024-02-26T23:36:06.158Z,58.85
2024-02-26T23:38:36.855Z,59.09
2024-02-26T23:41:08.225Z,59.03
2024-02-26T23:43:38.808Z,58.91
2024-02-26T23:46:10.315Z,58.65
2024-02-26T23:48:41.014Z,58.83
2024-02-26T23:51:11.825Z,58.91
2024-02-26T23:53:42.473Z,58.94
2024-02-26T23:56:13.130Z,58.87
2024-02-26T23:58:43.726Z,58.74
